Llanybydder, United Kingdom
Current Conditions -  °F | °C
As of 3:50 PM on Monday 26 Jan 2015 (Local Time) from EGOP Reporting Station
Broken Clouds Broken Clouds  
Wind Chill: 40°   Ceiling: 3300
Heat Index: 46°   Visibility: 6mi
Dew Point: 39°   Wind: 16mph
Humidity: 76%   Direction: 310°NW
Pressure: 30.36"   Gusts: NA
Location:  52.07°N, 4.16°W
Report Text: EGOP 261550Z AUTO 31014KT 9999 // FEW025/// BKN033/// 08/04 Q1028
Loading
Personal Weather Stations






























Interactive Weather Map New forecast layout! Learn more

10-Day Weather Forecast

Advertisements
Track Severe Weather on mobile